sensor_id;sensor_type;location;lat;lon;timestamp;temperature;humidity
59703;DHT22;45570;48.782;8.332;2023-04-03T00:01:49;5.00;99.90
59703;DHT22;45570;48.782;8.332;2023-04-03T00:04:18;4.90;99.90
59703;DHT22;45570;48.782;8.332;2023-04-03T00:06:48;4.90;99.90
59703;DHT22;45570;48.782;8.332;2023-04-03T00:09:17;4.90;99.90
59703;DHT22;45570;48.782;8.332;2023-04-03T00:11:48;4.90;99.90
59703;DHT22;45570;48.782;8.332;2023-04-03T00:14:17;4.80;99.90
59703;DHT22;45570;48.782;8.332;2023-04-03T00:16:47;4.80;99.90
59703;DHT22;45570;48.782;8.332;2023-04-03T00:19:16;4.80;99.90
59703;DHT22;45570;48.782;8.332;2023-04-03T00:21:45;4.80;99.90
59703;DHT22;45570;48.782;8.332;2023-04-03T00:24:14;4.80;99.90
59703;DHT22;45570;48.782;8.332;2023-04-03T00:26:45;4.80;99.90
59703;DHT22;45570;48.782;8.332;2023-04-03T00:29:16;4.80;99.90
59703;DHT22;45570;48.782;8.332;2023-04-03T00:31:46;4.80;99.90
59703;DHT22;45570;48.782;8.332;2023-04-03T00:34:15;4.80;99.90
59703;DHT22;45570;48.782;8.332;2023-04-03T00:36:44;4.70;99.90
59703;DHT22;45570;48.782;8.332;2023-04-03T00:39:13;4.70;99.90
59703;DHT22;45570;48.782;8.332;2023-04-03T00:41:42;4.70;99.90
59703;DHT22;45570;48.782;8.332;2023-04-03T00:47:30;4.70;99.90
59703;DHT22;45570;48.782;8.332;2023-04-03T00:50:01;4.70;99.90
59703;DHT22;45570;48.782;8.332;2023-04-03T00:52:31;4.70;99.90
59703;DHT22;45570;48.782;8.332;2023-04-03T00:55:03;4.70;99.90
59703;DHT22;45570;48.782;8.332;2023-04-03T00:57:33;4.60;99.90
59703;DHT22;45570;48.782;8.332;2023-04-03T01:00:08;4.60;99.90
59703;DHT22;45570;48.782;8.332;2023-04-03T01:02:42;4.60;99.90
59703;DHT22;45570;48.782;8.332;2023-04-03T01:05:15;4.60;99.90
59703;DHT22;45570;48.782;8.332;2023-04-03T01:07:45;4.50;99.90
59703;DHT22;45570;48.782;8.332;2023-04-03T01:10:16;4.50;99.90
59703;DHT22;45570;48.782;8.332;2023-04-03T01:12:49;4.50;99.90
59703;DHT22;45570;48.782;8.332;2023-04-03T01:15:22;4.50;99.90
59703;DHT22;45570;48.782;8.332;2023-04-03T01:17:53;4.50;99.90
59703;DHT22;45570;48.782;8.332;2023-04-03T01:21:07;4.50;99.90
59703;DHT22;45570;48.782;8.332;2023-04-03T01:23:50;4.50;99.90
59703;DHT22;45570;48.782;8.332;2023-04-03T01:26:23;4.50;99.90
59703;DHT22;45570;48.782;8.332;2023-04-03T01:28:54;4.40;99.90
59703;DHT22;45570;48.782;8.332;2023-04-03T01:31:28;4.50;99.90
59703;DHT22;45570;48.782;8.332;2023-04-03T01:37:52;4.50;99.90
59703;DHT22;45570;48.782;8.332;2023-04-03T01:40:24;4.40;99.90
59703;DHT22;45570;48.782;8.332;2023-04-03T01:42:54;4.40;99.90
59703;DHT22;45570;48.782;8.332;2023-04-03T01:45:23;4.40;99.90
59703;DHT22;45570;48.782;8.332;2023-04-03T01:47:52;4.40;99.90
59703;DHT22;45570;48.782;8.332;2023-04-03T01:50:24;4.30;99.90
59703;DHT22;45570;48.782;8.332;2023-04-03T01:52:55;4.10;99.90
59703;DHT22;45570;48.782;8.332;2023-04-03T01:55:24;4.10;99.90
59703;DHT22;45570;48.782;8.332;2023-04-03T01:57:54;4.10;99.90
59703;DHT22;45570;48.782;8.332;2023-04-03T02:00:23;4.10;99.90
59703;DHT22;45570;48.782;8.332;2023-04-03T02:02:54;4.00;99.90
59703;DHT22;45570;48.782;8.332;2023-04-03T02:05:25;4.00;99.90
59703;DHT22;45570;48.782;8.332;2023-04-03T02:07:56;4.00;99.90
59703;DHT22;45570;48.782;8.332;2023-04-03T02:10:25;3.90;99.90
59703;DHT22;45570;48.782;8.332;2023-04-03T02:12:58;3.90;99.90
59703;DHT22;45570;48.782;8.332;2023-04-03T02:15:28;3.80;99.90
59703;DHT22;45570;48.782;8.332;2023-04-03T02:17:57;3.80;99.90
59703;DHT22;45570;48.782;8.332;2023-04-03T02:20:27;3.80;99.90
59703;DHT22;45570;48.782;8.332;2023-04-03T02:22:58;3.70;99.90
59703;DHT22;45570;48.782;8.332;2023-04-03T02:25:27;3.70;99.90
59703;DHT22;45570;48.782;8.332;2023-04-03T02:27:57;3.60;99.90
59703;DHT22;45570;48.782;8.332;2023-04-03T02:30:26;3.50;99.90
59703;DHT22;45570;48.782;8.332;2023-04-03T02:32:55;3.40;99.90
59703;DHT22;45570;48.782;8.332;2023-04-03T02:35:25;3.30;99.90
59703;DHT22;45570;48.782;8.332;2023-04-03T02:38:00;3.30;99.90
59703;DHT22;45570;48.782;8.332;2023-04-03T02:40:30;3.30;99.90
59703;DHT22;45570;48.782;8.332;2023-04-03T02:42:59;3.30;99.90
59703;DHT22;45570;48.782;8.332;2023-04-03T02:45:28;3.30;99.90
59703;DHT22;45570;48.782;8.332;2023-04-03T02:47:57;3.30;99.90
59703;DHT22;45570;48.782;8.332;2023-04-03T02:50:30;3.30;99.90
59703;DHT22;45570;48.782;8.332;2023-04-03T02:53:01;3.30;99.90
59703;DHT22;45570;48.782;8.332;2023-04-03T02:55:30;3.30;99.90
59703;DHT22;45570;48.782;8.332;2023-04-03T02:57:59;3.30;99.90
59703;DHT22;45570;48.782;8.332;2023-04-03T03:00:29;3.30;99.90
59703;DHT22;45570;48.782;8.332;2023-04-03T03:02:58;3.30;99.90
59703;DHT22;45570;48.782;8.332;2023-04-03T03:05:27;3.30;99.90
59703;DHT22;45570;48.782;8.332;2023-04-03T03:07:56;3.20;99.90
59703;DHT22;45570;48.782;8.332;2023-04-03T03:10:27;3.10;99.90
59703;DHT22;45570;48.782;8.332;2023-04-03T03:12:56;3.10;99.90
59703;DHT22;45570;48.782;8.332;2023-04-03T03:15:25;3.00;99.90
59703;DHT22;45570;48.782;8.332;2023-04-03T03:17:55;3.00;99.90
59703;DHT22;45570;48.782;8.332;2023-04-03T03:20:25;2.90;99.90
59703;DHT22;45570;48.782;8.332;2023-04-03T03:22:55;2.90;99.90
59703;DHT22;45570;48.782;8.332;2023-04-03T03:25:24;2.80;99.90
59703;DHT22;45570;48.782;8.332;2023-04-03T03:27:55;2.70;99.90
59703;DHT22;45570;48.782;8.332;2023-04-03T03:30:24;2.60;99.90
59703;DHT22;45570;48.782;8.332;2023-04-03T03:32:53;2.60;99.90
59703;DHT22;45570;48.782;8.332;2023-04-03T03:35:22;2.50;99.90
59703;DHT22;45570;48.782;8.332;2023-04-03T03:37:52;2.60;99.90
59703;DHT22;45570;48.782;8.332;2023-04-03T03:40:22;2.60;99.90
59703;DHT22;45570;48.782;8.332;2023-04-03T03:42:51;2.60;99.90
59703;DHT22;45570;48.782;8.332;2023-04-03T03:45:22;2.50;99.90
59703;DHT22;45570;48.782;8.332;2023-04-03T03:47:52;2.40;99.90
59703;DHT22;45570;48.782;8.332;2023-04-03T03:50:22;2.40;99.90
59703;DHT22;45570;48.782;8.332;2023-04-03T03:52:51;2.50;99.90
59703;DHT22;45570;48.782;8.332;2023-04-03T03:55:20;2.50;99.90
59703;DHT22;45570;48.782;8.332;2023-04-03T03:57:54;2.50;99.90
59703;DHT22;45570;48.782;8.332;2023-04-03T04:00:24;2.60;99.90
59703;DHT22;45570;48.782;8.332;2023-04-03T04:02:56;2.50;99.90
59703;DHT22;45570;48.782;8.332;2023-04-03T04:05:27;2.50;99.90
59703;DHT22;45570;48.782;8.332;2023-04-03T04:07:58;2.40;99.90
59703;DHT22;45570;48.782;8.332;2023-04-03T04:10:27;2.40;99.90
59703;DHT22;45570;48.782;8.332;2023-04-03T04:12:57;2.30;99.90
59703;DHT22;45570;48.782;8.332;2023-04-03T04:15:30;2.30;99.90
59703;DHT22;45570;48.782;8.332;2023-04-03T04:17:59;2.30;99.90
59703;DHT22;45570;48.782;8.332;2023-04-03T04:20:29;2.30;99.90
59703;DHT22;45570;48.782;8.332;2023-04-03T04:22:58;2.40;99.90
59703;DHT22;45570;48.782;8.332;2023-04-03T04:25:28;2.40;99.90
59703;DHT22;45570;48.782;8.332;2023-04-03T04:27:58;2.30;99.90
59703;DHT22;45570;48.782;8.332;2023-04-03T04:30:28;2.20;99.90
59703;DHT22;45570;48.782;8.332;2023-04-03T04:32:58;2.10;99.90
59703;DHT22;45570;48.782;8.332;2023-04-03T04:35:27;2.00;99.90
59703;DHT22;45570;48.782;8.332;2023-04-03T04:37:56;2.00;99.90
59703;DHT22;45570;48.782;8.332;2023-04-03T04:40:26;2.00;99.90
59703;DHT22;45570;48.782;8.332;2023-04-03T04:42:55;2.00;99.90
59703;DHT22;45570;48.782;8.332;2023-04-03T04:45:25;1.90;99.90
59703;DHT22;45570;48.782;8.332;2023-04-03T04:47:56;1.70;99.90
59703;DHT22;45570;48.782;8.332;2023-04-03T04:50:26;1.60;99.90
59703;DHT22;45570;48.782;8.332;2023-04-03T04:52:55;1.50;99.90
59703;DHT22;45570;48.782;8.332;2023-04-03T04:55:25;1.50;99.90
59703;DHT22;45570;48.782;8.332;2023-04-03T04:57:54;1.70;99.90
59703;DHT22;45570;48.782;8.332;2023-04-03T05:00:23;1.70;99.90
59703;DHT22;45570;48.782;8.332;2023-04-03T05:02:53;1.50;99.90
59703;DHT22;45570;48.782;8.332;2023-04-03T05:05:25;1.50;99.90
59703;DHT22;45570;48.782;8.332;2023-04-03T05:07:54;1.50;99.90
59703;DHT22;45570;48.782;8.332;2023-04-03T05:10:23;1.50;99.90
59703;DHT22;45570;48.782;8.332;2023-04-03T05:12:53;1.50;99.90
59703;DHT22;45570;48.782;8.332;2023-04-03T05:15:22;1.50;99.90
59703;DHT22;45570;48.782;8.332;2023-04-03T05:17:51;1.80;99.90
59703;DHT22;45570;48.782;8.332;2023-04-03T05:20:21;1.90;99.90
59703;DHT22;45570;48.782;8.332;2023-04-03T05:22:52;1.80;99.90
59703;DHT22;45570;48.782;8.332;2023-04-03T05:25:21;1.70;99.90
59703;DHT22;45570;48.782;8.332;2023-04-03T05:27:54;1.60;99.90
59703;DHT22;45570;48.782;8.332;2023-04-03T05:30:24;1.60;99.90
59703;DHT22;45570;48.782;8.332;2023-04-03T05:32:54;1.60;99.90
59703;DHT22;45570;48.782;8.332;2023-04-03T05:35:35;1.60;99.90
59703;DHT22;45570;48.782;8.332;2023-04-03T05:38:10;1.80;99.90
59703;DHT22;45570;48.782;8.332;2023-04-03T05:40:39;2.00;99.90
59703;DHT22;45570;48.782;8.332;2023-04-03T05:43:08;1.90;99.90
59703;DHT22;45570;48.782;8.332;2023-04-03T05:45:40;1.90;99.90
59703;DHT22;45570;48.782;8.332;2023-04-03T05:48:13;2.00;99.90
59703;DHT22;45570;48.782;8.332;2023-04-03T05:50:43;2.20;99.90
59703;DHT22;45570;48.782;8.332;2023-04-03T05:53:22;2.20;99.90
59703;DHT22;45570;48.782;8.332;2023-04-03T05:55:53;2.50;99.90
59703;DHT22;45570;48.782;8.332;2023-04-03T05:58:23;2.50;99.90
59703;DHT22;45570;48.782;8.332;2023-04-03T06:00:53;2.60;99.90
59703;DHT22;45570;48.782;8.332;2023-04-03T06:03:22;2.50;99.90
59703;DHT22;45570;48.782;8.332;2023-04-03T06:05:52;2.50;99.90
59703;DHT22;45570;48.782;8.332;2023-04-03T06:08:25;2.70;99.90
59703;DHT22;45570;48.782;8.332;2023-04-03T06:10:54;2.90;99.90
59703;DHT22;45570;48.782;8.332;2023-04-03T06:13:26;3.10;99.90
59703;DHT22;45570;48.782;8.332;2023-04-03T06:15:55;3.40;99.90
59703;DHT22;45570;48.782;8.332;2023-04-03T06:18:25;3.40;99.90
59703;DHT22;45570;48.782;8.332;2023-04-03T06:20:55;3.50;99.90
59703;DHT22;45570;48.782;8.332;2023-04-03T06:23:26;3.30;99.90
59703;DHT22;45570;48.782;8.332;2023-04-03T06:25:56;3.40;99.90
59703;DHT22;45570;48.782;8.332;2023-04-03T06:28:25;3.60;99.90
59703;DHT22;45570;48.782;8.332;2023-04-03T06:30:54;3.70;99.90
59703;DHT22;45570;48.782;8.332;2023-04-03T06:33:23;3.70;99.90
59703;DHT22;45570;48.782;8.332;2023-04-03T06:35:58;3.70;99.90
59703;DHT22;45570;48.782;8.332;2023-04-03T06:38:29;3.80;99.90
59703;DHT22;45570;48.782;8.332;2023-04-03T06:40:58;4.00;99.90
59703;DHT22;45570;48.782;8.332;2023-04-03T06:43:27;4.20;99.90
59703;DHT22;45570;48.782;8.332;2023-04-03T06:46:00;4.40;99.90
59703;DHT22;45570;48.782;8.332;2023-04-03T06:48:30;4.40;99.90
59703;DHT22;45570;48.782;8.332;2023-04-03T06:50:59;4.70;99.90
59703;DHT22;45570;48.782;8.332;2023-04-03T06:53:31;4.90;99.90
59703;DHT22;45570;48.782;8.332;2023-04-03T06:56:01;5.20;99.90
59703;DHT22;45570;48.782;8.332;2023-04-03T06:58:30;5.20;99.90
59703;DHT22;45570;48.782;8.332;2023-04-03T07:01:00;5.30;99.90
59703;DHT22;45570;48.782;8.332;2023-04-03T07:03:29;5.30;99.90
59703;DHT22;45570;48.782;8.332;2023-04-03T07:06:00;5.40;99.90
59703;DHT22;45570;48.782;8.332;2023-04-03T07:08:32;5.30;99.90
59703;DHT22;45570;48.782;8.332;2023-04-03T07:11:02;5.40;99.90
59703;DHT22;45570;48.782;8.332;2023-04-03T07:13:31;5.60;99.90
59703;DHT22;45570;48.782;8.332;2023-04-03T07:16:02;5.70;99.90
59703;DHT22;45570;48.782;8.332;2023-04-03T07:18:33;6.00;99.90
59703;DHT22;45570;48.782;8.332;2023-04-03T07:21:03;6.10;99.90
59703;DHT22;45570;48.782;8.332;2023-04-03T07:23:35;6.40;99.90
59703;DHT22;45570;48.782;8.332;2023-04-03T07:26:06;6.40;99.90
59703;DHT22;45570;48.782;8.332;2023-04-03T07:28:36;6.60;99.90
59703;DHT22;45570;48.782;8.332;2023-04-03T07:31:07;6.90;99.90
59703;DHT22;45570;48.782;8.332;2023-04-03T07:33:39;7.20;99.90
59703;DHT22;45570;48.782;8.332;2023-04-03T07:36:09;7.40;99.90
59703;DHT22;45570;48.782;8.332;2023-04-03T07:38:42;7.50;99.90
59703;DHT22;45570;48.782;8.332;2023-04-03T07:41:13;7.40;99.90
59703;DHT22;45570;48.782;8.332;2023-04-03T07:43:45;7.40;99.90
59703;DHT22;45570;48.782;8.332;2023-04-03T07:46:17;7.60;99.90
59703;DHT22;45570;48.782;8.332;2023-04-03T07:48:46;8.00;99.90
59703;DHT22;45570;48.782;8.332;2023-04-03T07:51:16;8.40;99.90
59703;DHT22;45570;48.782;8.332;2023-04-03T07:53:47;8.60;99.90
59703;DHT22;45570;48.782;8.332;2023-04-03T07:56:17;8.80;99.90
59703;DHT22;45570;48.782;8.332;2023-04-03T07:58:48;8.80;99.90
59703;DHT22;45570;48.782;8.332;2023-04-03T08:01:17;8.90;99.90
59703;DHT22;45570;48.782;8.332;2023-04-03T08:03:46;9.10;99.90
59703;DHT22;45570;48.782;8.332;2023-04-03T08:06:16;9.00;99.90
59703;DHT22;45570;48.782;8.332;2023-04-03T08:08:57;9.10;99.90
59703;DHT22;45570;48.782;8.332;2023-04-03T08:11:27;9.10;99.90
59703;DHT22;45570;48.782;8.332;2023-04-03T08:13:56;9.10;99.90
59703;DHT22;45570;48.782;8.332;2023-04-03T08:16:26;8.60;99.90
59703;DHT22;45570;48.782;8.332;2023-04-03T08:18:55;8.40;99.90
59703;DHT22;45570;48.782;8.332;2023-04-03T08:21:25;8.30;99.90
59703;DHT22;45570;48.782;8.332;2023-04-03T08:23:54;8.10;99.90
59703;DHT22;45570;48.782;8.332;2023-04-03T08:26:25;8.00;99.90
59703;DHT22;45570;48.782;8.332;2023-04-03T08:28:55;7.90;99.90
59703;DHT22;45570;48.782;8.332;2023-04-03T08:31:24;7.90;99.90
59703;DHT22;45570;48.782;8.332;2023-04-03T08:33:53;7.90;99.90
59703;DHT22;45570;48.782;8.332;2023-04-03T08:36:24;8.30;99.90
59703;DHT22;45570;48.782;8.332;2023-04-03T08:38:55;8.90;99.90
59703;DHT22;45570;48.782;8.332;2023-04-03T08:41:33;9.10;99.90
59703;DHT22;45570;48.782;8.332;2023-04-03T08:44:11;8.40;99.90
59703;DHT22;45570;48.782;8.332;2023-04-03T08:46:54;8.20;99.90
59703;DHT22;45570;48.782;8.332;2023-04-03T08:49:28;8.00;99.90
59703;DHT22;45570;48.782;8.332;2023-04-03T08:52:00;7.90;99.90
59703;DHT22;45570;48.782;8.332;2023-04-03T08:54:33;7.80;99.90
59703;DHT22;45570;48.782;8.332;2023-04-03T08:57:05;7.50;99.90
59703;DHT22;45570;48.782;8.332;2023-04-03T08:59:37;7.10;99.90
59703;DHT22;45570;48.782;8.332;2023-04-03T09:02:23;7.40;99.90
59703;DHT22;45570;48.782;8.332;2023-04-03T09:04:55;7.50;99.90
59703;DHT22;45570;48.782;8.332;2023-04-03T09:07:33;7.30;99.90
59703;DHT22;45570;48.782;8.332;2023-04-03T09:10:06;7.40;99.90
59703;DHT22;45570;48.782;8.332;2023-04-03T09:12:40;7.20;99.90
59703;DHT22;45570;48.782;8.332;2023-04-03T09:15:15;7.20;99.90
59703;DHT22;45570;48.782;8.332;2023-04-03T09:18:05;7.10;99.90
59703;DHT22;45570;48.782;8.332;2023-04-03T09:20:43;7.40;99.90
59703;DHT22;45570;48.782;8.332;2023-04-03T09:23:21;7.60;99.90
59703;DHT22;45570;48.782;8.332;2023-04-03T09:25:54;7.70;99.90
59703;DHT22;45570;48.782;8.332;2023-04-03T09:28:28;7.70;99.90
59703;DHT22;45570;48.782;8.332;2023-04-03T09:31:17;7.50;99.90
59703;DHT22;45570;48.782;8.332;2023-04-03T09:33:50;7.30;99.90
59703;DHT22;45570;48.782;8.332;2023-04-03T09:36:41;7.20;99.90
59703;DHT22;45570;48.782;8.332;2023-04-03T09:39:14;7.10;99.90
59703;DHT22;45570;48.782;8.332;2023-04-03T09:41:57;7.40;99.90
59703;DHT22;45570;48.782;8.332;2023-04-03T09:44:30;7.40;99.90
59703;DHT22;45570;48.782;8.332;2023-04-03T09:47:00;7.30;99.90
59703;DHT22;45570;48.782;8.332;2023-04-03T09:49:46;7.30;99.90
59703;DHT22;45570;48.782;8.332;2023-04-03T09:52:22;7.30;99.90
59703;DHT22;45570;48.782;8.332;2023-04-03T09:54:52;7.30;99.90
59703;DHT22;45570;48.782;8.332;2023-04-03T09:57:22;7.50;99.90
59703;DHT22;45570;48.782;8.332;2023-04-03T10:00:04;7.50;99.90
59703;DHT22;45570;48.782;8.332;2023-04-03T10:02:39;7.60;99.90
59703;DHT22;45570;48.782;8.332;2023-04-03T10:05:26;7.50;99.90
59703;DHT22;45570;48.782;8.332;2023-04-03T10:08:09;7.40;99.90
59703;DHT22;45570;48.782;8.332;2023-04-03T10:10:45;7.50;99.90
59703;DHT22;45570;48.782;8.332;2023-04-03T10:13:16;7.70;99.90
59703;DHT22;45570;48.782;8.332;2023-04-03T10:15:54;7.80;99.90
59703;DHT22;45570;48.782;8.332;2023-04-03T10:18:38;7.70;99.90
59703;DHT22;45570;48.782;8.332;2023-04-03T10:21:14;7.80;99.90
59703;DHT22;45570;48.782;8.332;2023-04-03T10:23:58;8.00;99.90
59703;DHT22;45570;48.782;8.332;2023-04-03T10:26:52;8.00;99.90
59703;DHT22;45570;48.782;8.332;2023-04-03T10:29:35;8.10;99.90
59703;DHT22;45570;48.782;8.332;2023-04-03T10:32:35;8.40;99.90
59703;DHT22;45570;48.782;8.332;2023-04-03T10:35:18;9.00;99.90
59703;DHT22;45570;48.782;8.332;2023-04-03T10:37:59;9.00;99.90
59703;DHT22;45570;48.782;8.332;2023-04-03T10:40:35;8.90;99.90
59703;DHT22;45570;48.782;8.332;2023-04-03T10:43:11;8.70;99.90
59703;DHT22;45570;48.782;8.332;2023-04-03T10:45:57;8.50;99.90
59703;DHT22;45570;48.782;8.332;2023-04-03T10:48:40;8.50;99.90
59703;DHT22;45570;48.782;8.332;2023-04-03T10:51:23;9.10;99.90
59703;DHT22;45570;48.782;8.332;2023-04-03T10:53:57;9.30;99.90
59703;DHT22;45570;48.782;8.332;2023-04-03T10:56:37;9.60;99.90
59703;DHT22;45570;48.782;8.332;2023-04-03T10:59:18;9.70;99.90
59703;DHT22;45570;48.782;8.332;2023-04-03T11:01:52;9.40;99.90
59703;DHT22;45570;48.782;8.332;2023-04-03T11:04:27;9.10;99.90
59703;DHT22;45570;48.782;8.332;2023-04-03T11:07:02;9.00;99.90
59703;DHT22;45570;48.782;8.332;2023-04-03T11:09:37;8.80;99.90
59703;DHT22;45570;48.782;8.332;2023-04-03T11:12:13;8.60;99.90
59703;DHT22;45570;48.782;8.332;2023-04-03T11:14:45;8.50;99.90
59703;DHT22;45570;48.782;8.332;2023-04-03T11:17:25;8.40;99.90
59703;DHT22;45570;48.782;8.332;2023-04-03T11:20:03;8.20;99.90
59703;DHT22;45570;48.782;8.332;2023-04-03T11:22:37;8.10;99.90
59703;DHT22;45570;48.782;8.332;2023-04-03T11:25:16;8.10;99.90
59703;DHT22;45570;48.782;8.332;2023-04-03T11:27:54;8.10;99.90
59703;DHT22;45570;48.782;8.332;2023-04-03T11:30:27;8.20;99.90
59703;DHT22;45570;48.782;8.332;2023-04-03T11:35:52;8.40;99.90
59703;DHT22;45570;48.782;8.332;2023-04-03T11:38:25;8.30;99.90
59703;DHT22;45570;48.782;8.332;2023-04-03T11:40:57;8.30;99.90
59703;DHT22;45570;48.782;8.332;2023-04-03T11:43:28;8.30;99.90
59703;DHT22;45570;48.782;8.332;2023-04-03T11:46:00;8.20;99.90
59703;DHT22;45570;48.782;8.332;2023-04-03T11:48:48;8.10;99.90
59703;DHT22;45570;48.782;8.332;2023-04-03T11:51:42;8.10;99.90
59703;DHT22;45570;48.782;8.332;2023-04-03T11:54:44;8.00;99.90
59703;DHT22;45570;48.782;8.332;2023-04-03T12:00:57;7.60;99.90
59703;DHT22;45570;48.782;8.332;2023-04-03T12:06:58;7.60;99.90
59703;DHT22;45570;48.782;8.332;2023-04-03T12:09:33;7.70;99.90
59703;DHT22;45570;48.782;8.332;2023-04-03T12:15:24;7.90;99.90
59703;DHT22;45570;48.782;8.332;2023-04-03T12:17:54;8.10;99.90
59703;DHT22;45570;48.782;8.332;2023-04-03T12:20:55;8.00;99.90
59703;DHT22;45570;48.782;8.332;2023-04-03T12:23:30;8.00;99.90
59703;DHT22;45570;48.782;8.332;2023-04-03T12:26:04;7.90;99.90
59703;DHT22;45570;48.782;8.332;2023-04-03T12:28:39;7.90;99.90
59703;DHT22;45570;48.782;8.332;2023-04-03T12:31:10;8.00;99.90
59703;DHT22;45570;48.782;8.332;2023-04-03T12:34:04;8.20;99.90
59703;DHT22;45570;48.782;8.332;2023-04-03T12:36:47;8.40;99.90
59703;DHT22;45570;48.782;8.332;2023-04-03T12:39:34;8.50;99.90
59703;DHT22;45570;48.782;8.332;2023-04-03T12:42:17;8.60;99.90
59703;DHT22;45570;48.782;8.332;2023-04-03T12:44:56;8.50;99.90
59703;DHT22;45570;48.782;8.332;2023-04-03T12:47:29;8.30;99.90
59703;DHT22;45570;48.782;8.332;2023-04-03T12:50:16;8.30;99.90
59703;DHT22;45570;48.782;8.332;2023-04-03T12:52:52;8.10;99.90
59703;DHT22;45570;48.782;8.332;2023-04-03T12:55:25;8.00;99.90
59703;DHT22;45570;48.782;8.332;2023-04-03T12:57:55;7.80;99.90
59703;DHT22;45570;48.782;8.332;2023-04-03T13:00:33;7.80;99.90
59703;DHT22;45570;48.782;8.332;2023-04-03T13:03:03;7.90;99.90
59703;DHT22;45570;48.782;8.332;2023-04-03T13:05:34;7.90;99.90
59703;DHT22;45570;48.782;8.332;2023-04-03T13:08:14;7.90;99.90
59703;DHT22;45570;48.782;8.332;2023-04-03T13:10:55;7.90;99.90
59703;DHT22;45570;48.782;8.332;2023-04-03T13:13:26;8.00;99.90
59703;DHT22;45570;48.782;8.332;2023-04-03T13:15:56;8.00;99.90
59703;DHT22;45570;48.782;8.332;2023-04-03T13:18:28;8.10;99.90
59703;DHT22;45570;48.782;8.332;2023-04-03T13:21:03;8.20;99.90
59703;DHT22;45570;48.782;8.332;2023-04-03T13:23:36;8.20;99.90
59703;DHT22;45570;48.782;8.332;2023-04-03T13:26:08;8.10;99.90
59703;DHT22;45570;48.782;8.332;2023-04-03T13:28:40;8.00;99.90
59703;DHT22;45570;48.782;8.332;2023-04-03T13:31:20;7.80;99.90
59703;DHT22;45570;48.782;8.332;2023-04-03T13:33:55;7.80;99.90
59703;DHT22;45570;48.782;8.332;2023-04-03T13:36:29;7.60;99.90
59703;DHT22;45570;48.782;8.332;2023-04-03T13:39:03;7.60;99.90
59703;DHT22;45570;48.782;8.332;2023-04-03T13:41:35;7.60;99.90
59703;DHT22;45570;48.782;8.332;2023-04-03T13:44:32;7.60;99.90
59703;DHT22;45570;48.782;8.332;2023-04-03T13:47:17;7.70;99.90
59703;DHT22;45570;48.782;8.332;2023-04-03T13:49:59;7.80;99.90
59703;DHT22;45570;48.782;8.332;2023-04-03T13:52:31;7.90;99.90
59703;DHT22;45570;48.782;8.332;2023-04-03T13:55:16;7.80;99.90
59703;DHT22;45570;48.782;8.332;2023-04-03T13:57:56;7.80;99.90
59703;DHT22;45570;48.782;8.332;2023-04-03T14:00:34;7.70;99.90
59703;DHT22;45570;48.782;8.332;2023-04-03T14:03:13;7.60;99.90
59703;DHT22;45570;48.782;8.332;2023-04-03T14:05:58;7.60;99.90
59703;DHT22;45570;48.782;8.332;2023-04-03T14:08:29;7.50;99.90
59703;DHT22;45570;48.782;8.332;2023-04-03T14:11:14;7.40;99.90
59703;DHT22;45570;48.782;8.332;2023-04-03T14:13:49;7.50;99.90
59703;DHT22;45570;48.782;8.332;2023-04-03T14:16:20;7.50;99.90
59703;DHT22;45570;48.782;8.332;2023-04-03T14:18:51;7.70;99.90
59703;DHT22;45570;48.782;8.332;2023-04-03T14:21:20;7.80;99.90
59703;DHT22;45570;48.782;8.332;2023-04-03T14:23:50;7.80;99.90
59703;DHT22;45570;48.782;8.332;2023-04-03T14:26:21;7.80;99.90
59703;DHT22;45570;48.782;8.332;2023-04-03T14:28:54;7.90;99.90
59703;DHT22;45570;48.782;8.332;2023-04-03T14:31:24;7.90;99.90
59703;DHT22;45570;48.782;8.332;2023-04-03T14:33:53;7.80;99.90
59703;DHT22;45570;48.782;8.332;2023-04-03T14:36:25;7.80;99.90
59703;DHT22;45570;48.782;8.332;2023-04-03T14:38:56;7.80;99.90
59703;DHT22;45570;48.782;8.332;2023-04-03T14:41:26;7.70;99.90
59703;DHT22;45570;48.782;8.332;2023-04-03T14:43:57;7.60;99.90
59703;DHT22;45570;48.782;8.332;2023-04-03T14:46:29;7.60;99.90
59703;DHT22;45570;48.782;8.332;2023-04-03T14:49:20;7.80;99.90
59703;DHT22;45570;48.782;8.332;2023-04-03T14:51:50;7.90;99.90
59703;DHT22;45570;48.782;8.332;2023-04-03T14:54:22;8.10;99.90
59703;DHT22;45570;48.782;8.332;2023-04-03T14:56:53;8.10;99.90
59703;DHT22;45570;48.782;8.332;2023-04-03T14:59:25;8.10;99.90
59703;DHT22;45570;48.782;8.332;2023-04-03T15:01:54;8.20;99.90
59703;DHT22;45570;48.782;8.332;2023-04-03T15:04:24;8.20;99.90
59703;DHT22;45570;48.782;8.332;2023-04-03T15:06:54;8.10;99.90
59703;DHT22;45570;48.782;8.332;2023-04-03T15:09:25;7.90;99.90
59703;DHT22;45570;48.782;8.332;2023-04-03T15:11:55;7.80;99.90
59703;DHT22;45570;48.782;8.332;2023-04-03T15:14:26;7.80;99.90
59703;DHT22;45570;48.782;8.332;2023-04-03T15:17:14;7.70;99.90
59703;DHT22;45570;48.782;8.332;2023-04-03T15:19:44;7.80;99.90
59703;DHT22;45570;48.782;8.332;2023-04-03T15:22:15;7.80;99.90
59703;DHT22;45570;48.782;8.332;2023-04-03T15:24:46;7.80;99.90
59703;DHT22;45570;48.782;8.332;2023-04-03T15:27:15;7.90;99.90
59703;DHT22;45570;48.782;8.332;2023-04-03T15:29:47;8.00;99.90
59703;DHT22;45570;48.782;8.332;2023-04-03T15:32:16;7.90;99.90
59703;DHT22;45570;48.782;8.332;2023-04-03T15:34:45;7.90;99.90
59703;DHT22;45570;48.782;8.332;2023-04-03T15:37:15;7.80;99.90
59703;DHT22;45570;48.782;8.332;2023-04-03T15:39:44;7.80;99.90
59703;DHT22;45570;48.782;8.332;2023-04-03T15:42:14;7.80;99.90
59703;DHT22;45570;48.782;8.332;2023-04-03T15:44:43;7.80;99.90
59703;DHT22;45570;48.782;8.332;2023-04-03T15:47:14;7.80;99.90
59703;DHT22;45570;48.782;8.332;2023-04-03T15:49:44;7.70;99.90
59703;DHT22;45570;48.782;8.332;2023-04-03T15:52:14;7.70;99.90
59703;DHT22;45570;48.782;8.332;2023-04-03T15:54:43;7.90;99.90
59703;DHT22;45570;48.782;8.332;2023-04-03T15:57:13;8.10;99.90
59703;DHT22;45570;48.782;8.332;2023-04-03T15:59:43;8.20;99.90
59703;DHT22;45570;48.782;8.332;2023-04-03T16:02:14;8.20;99.90
59703;DHT22;45570;48.782;8.332;2023-04-03T16:04:43;8.20;99.90
59703;DHT22;45570;48.782;8.332;2023-04-03T16:07:13;8.10;99.90
59703;DHT22;45570;48.782;8.332;2023-04-03T16:09:43;7.90;99.90
59703;DHT22;45570;48.782;8.332;2023-04-03T16:12:12;7.90;99.90
59703;DHT22;45570;48.782;8.332;2023-04-03T16:14:42;7.80;99.90
59703;DHT22;45570;48.782;8.332;2023-04-03T16:17:11;7.80;99.90
59703;DHT22;45570;48.782;8.332;2023-04-03T16:19:42;7.70;99.90
59703;DHT22;45570;48.782;8.332;2023-04-03T16:22:12;7.70;99.90
59703;DHT22;45570;48.782;8.332;2023-04-03T16:24:42;7.60;99.90
59703;DHT22;45570;48.782;8.332;2023-04-03T16:27:12;7.70;99.90
59703;DHT22;45570;48.782;8.332;2023-04-03T16:29:41;7.60;99.90
59703;DHT22;45570;48.782;8.332;2023-04-03T16:32:10;7.70;99.90
59703;DHT22;45570;48.782;8.332;2023-04-03T16:34:42;7.60;99.90
59703;DHT22;45570;48.782;8.332;2023-04-03T16:37:11;7.60;99.90
59703;DHT22;45570;48.782;8.332;2023-04-03T16:39:40;7.60;99.90
59703;DHT22;45570;48.782;8.332;2023-04-03T16:42:10;7.70;99.90